sensor_id;sensor_type;location;lat;lon;timestamp;pressure;altitude;pressure_sealevel;temperature;humidity
78337;BME280;67610;51.588;7.002;2023-05-02T00:01:56;101111.69;;;13.34;57.70
78337;BME280;67610;51.588;7.002;2023-05-02T00:04:22;101111.31;;;13.29;57.86
78337;BME280;67610;51.588;7.002;2023-05-02T00:06:48;101114.25;;;13.26;58.33
78337;BME280;67610;51.588;7.002;2023-05-02T00:09:15;101122.34;;;13.24;58.29
78337;BME280;67610;51.588;7.002;2023-05-02T00:11:40;101121.00;;;13.20;58.45
78337;BME280;67610;51.588;7.002;2023-05-02T00:14:06;101122.97;;;13.18;58.49
78337;BME280;67610;51.588;7.002;2023-05-02T00:16:32;101120.00;;;13.13;58.95
78337;BME280;67610;51.588;7.002;2023-05-02T00:18:57;101118.31;;;13.12;58.70
78337;BME280;67610;51.588;7.002;2023-05-02T00:21:23;101120.97;;;13.12;58.90
78337;BME280;67610;51.588;7.002;2023-05-02T00:23:50;101120.28;;;13.10;59.22
78337;BME280;67610;51.588;7.002;2023-05-02T00:26:15;101122.09;;;13.10;59.27
78337;BME280;67610;51.588;7.002;2023-05-02T00:28:41;101125.56;;;13.10;59.56
78337;BME280;67610;51.588;7.002;2023-05-02T00:31:06;101135.31;;;13.10;59.81
78337;BME280;67610;51.588;7.002;2023-05-02T00:33:32;101128.03;;;13.12;59.69
78337;BME280;67610;51.588;7.002;2023-05-02T00:35:57;101123.97;;;13.17;59.86
78337;BME280;67610;51.588;7.002;2023-05-02T00:38:22;101132.72;;;13.18;60.07
78337;BME280;67610;51.588;7.002;2023-05-02T00:40:49;101122.00;;;13.19;59.93
78337;BME280;67610;51.588;7.002;2023-05-02T00:43:16;101120.84;;;13.22;60.10
78337;BME280;67610;51.588;7.002;2023-05-02T00:45:43;101121.00;;;13.20;60.15
78337;BME280;67610;51.588;7.002;2023-05-02T00:48:09;101122.66;;;13.21;60.09
78337;BME280;67610;51.588;7.002;2023-05-02T00:50:40;101115.41;;;13.23;60.14
78337;BME280;67610;51.588;7.002;2023-05-02T00:53:07;101125.31;;;13.21;60.62
78337;BME280;67610;51.588;7.002;2023-05-02T00:55:33;101116.72;;;13.19;60.42
78337;BME280;67610;51.588;7.002;2023-05-02T00:58:01;101128.25;;;13.18;60.27
78337;BME280;67610;51.588;7.002;2023-05-02T01:06:10;101137.84;;;13.19;61.46
78337;BME280;67610;51.588;7.002;2023-05-02T01:09:12;101140.47;;;13.19;61.42
78337;BME280;67610;51.588;7.002;2023-05-02T01:11:55;101140.66;;;13.18;61.60
78337;BME280;67610;51.588;7.002;2023-05-02T01:14:28;101141.31;;;13.20;60.75
78337;BME280;67610;51.588;7.002;2023-05-02T01:16:55;101143.50;;;13.24;60.96
78337;BME280;67610;51.588;7.002;2023-05-02T01:19:31;101139.84;;;13.25;61.74
78337;BME280;67610;51.588;7.002;2023-05-02T01:22:01;101146.78;;;13.26;61.35
78337;BME280;67610;51.588;7.002;2023-05-02T01:24:31;101145.13;;;13.25;61.34
78337;BME280;67610;51.588;7.002;2023-05-02T01:27:10;101155.69;;;13.25;61.38
78337;BME280;67610;51.588;7.002;2023-05-02T01:29:39;101152.09;;;13.26;61.23
78337;BME280;67610;51.588;7.002;2023-05-02T01:32:07;101155.41;;;13.28;61.12
78337;BME280;67610;51.588;7.002;2023-05-02T01:34:35;101157.38;;;13.26;61.42
78337;BME280;67610;51.588;7.002;2023-05-02T01:37:02;101154.06;;;13.24;61.98
78337;BME280;67610;51.588;7.002;2023-05-02T01:39:31;101166.59;;;13.22;61.69
78337;BME280;67610;51.588;7.002;2023-05-02T01:41:58;101159.63;;;13.21;61.76
78337;BME280;67610;51.588;7.002;2023-05-02T01:44:27;101170.22;;;13.21;61.54
78337;BME280;67610;51.588;7.002;2023-05-02T01:46:55;101177.16;;;13.22;61.61
78337;BME280;67610;51.588;7.002;2023-05-02T01:49:22;101174.66;;;13.21;61.73
78337;BME280;67610;51.588;7.002;2023-05-02T01:51:49;101185.22;;;13.21;61.67
78337;BME280;67610;51.588;7.002;2023-05-02T01:54:16;101183.41;;;13.21;61.80
78337;BME280;67610;51.588;7.002;2023-05-02T01:56:42;101179.34;;;13.27;61.69
78337;BME280;67610;51.588;7.002;2023-05-02T01:59:11;101184.28;;;13.30;61.55
78337;BME280;67610;51.588;7.002;2023-05-02T02:01:39;101189.44;;;13.32;61.43
78337;BME280;67610;51.588;7.002;2023-05-02T02:04:07;101193.88;;;13.31;61.44
78337;BME280;67610;51.588;7.002;2023-05-02T02:06:33;101193.72;;;13.32;61.81
78337;BME280;67610;51.588;7.002;2023-05-02T02:08:59;101198.03;;;13.34;61.56
78337;BME280;67610;51.588;7.002;2023-05-02T02:11:30;101202.94;;;13.28;61.76
78337;BME280;67610;51.588;7.002;2023-05-02T02:14:13;101205.28;;;13.32;62.07
78337;BME280;67610;51.588;7.002;2023-05-02T02:16:41;101205.13;;;13.33;61.58
78337;BME280;67610;51.588;7.002;2023-05-02T02:19:09;101205.97;;;13.34;61.65
78337;BME280;67610;51.588;7.002;2023-05-02T02:21:37;101212.06;;;13.34;61.58
78337;BME280;67610;51.588;7.002;2023-05-02T02:24:06;101212.88;;;13.35;61.74
78337;BME280;67610;51.588;7.002;2023-05-02T02:26:32;101207.94;;;13.32;61.75
78337;BME280;67610;51.588;7.002;2023-05-02T02:28:59;101218.50;;;13.32;61.99
78337;BME280;67610;51.588;7.002;2023-05-02T02:31:35;101221.81;;;13.34;62.75
78337;BME280;67610;51.588;7.002;2023-05-02T02:34:03;101223.19;;;13.20;62.67
78337;BME280;67610;51.588;7.002;2023-05-02T02:36:52;101219.19;;;13.16;63.33
78337;BME280;67610;51.588;7.002;2023-05-02T02:42:17;101223.34;;;13.18;62.45
78337;BME280;67610;51.588;7.002;2023-05-02T02:47:55;101227.56;;;13.11;62.83
78337;BME280;67610;51.588;7.002;2023-05-02T02:51:09;101230.91;;;13.13;63.05
78337;BME280;67610;51.588;7.002;2023-05-02T02:56:26;101224.16;;;13.19;62.29
78337;BME280;67610;51.588;7.002;2023-05-02T02:59:05;101222.19;;;13.21;62.21
78337;BME280;67610;51.588;7.002;2023-05-02T03:01:33;101219.72;;;13.19;62.07
78337;BME280;67610;51.588;7.002;2023-05-02T03:04:01;101228.31;;;13.21;61.74
78337;BME280;67610;51.588;7.002;2023-05-02T03:06:29;101230.00;;;13.22;62.03
78337;BME280;67610;51.588;7.002;2023-05-02T03:08:55;101226.34;;;13.23;61.77
78337;BME280;67610;51.588;7.002;2023-05-02T03:11:21;101233.81;;;13.28;61.94
78337;BME280;67610;51.588;7.002;2023-05-02T03:13:46;101242.28;;;13.32;61.53
78337;BME280;67610;51.588;7.002;2023-05-02T03:18:44;101243.78;;;13.34;62.16
78337;BME280;67610;51.588;7.002;2023-05-02T03:21:09;101238.34;;;13.36;61.72
78337;BME280;67610;51.588;7.002;2023-05-02T03:23:35;101242.66;;;13.37;61.50
78337;BME280;67610;51.588;7.002;2023-05-02T03:26:01;101239.66;;;13.40;61.40
78337;BME280;67610;51.588;7.002;2023-05-02T03:28:27;101231.38;;;13.35;61.40
78337;BME280;67610;51.588;7.002;2023-05-02T03:30:52;101244.28;;;13.38;61.85
78337;BME280;67610;51.588;7.002;2023-05-02T03:33:18;101250.25;;;13.40;61.37
78337;BME280;67610;51.588;7.002;2023-05-02T03:35:43;101248.44;;;13.40;61.29
78337;BME280;67610;51.588;7.002;2023-05-02T03:38:08;101250.09;;;13.41;61.36
78337;BME280;67610;51.588;7.002;2023-05-02T03:40:34;101251.91;;;13.41;61.45
78337;BME280;67610;51.588;7.002;2023-05-02T03:42:59;101253.72;;;13.40;61.27
78337;BME280;67610;51.588;7.002;2023-05-02T03:45:25;101256.53;;;13.39;61.53
78337;BME280;67610;51.588;7.002;2023-05-02T03:47:50;101261.16;;;13.37;61.43
78337;BME280;67610;51.588;7.002;2023-05-02T03:50:16;101262.63;;;13.39;61.33
78337;BME280;67610;51.588;7.002;2023-05-02T03:52:41;101267.09;;;13.39;61.35
78337;BME280;67610;51.588;7.002;2023-05-02T03:55:06;101267.91;;;13.39;61.57
78337;BME280;67610;51.588;7.002;2023-05-02T03:57:32;101264.47;;;13.39;61.44
78337;BME280;67610;51.588;7.002;2023-05-02T03:59:57;101277.97;;;13.36;61.74
78337;BME280;67610;51.588;7.002;2023-05-02T04:02:23;101275.31;;;13.36;62.04
78337;BME280;67610;51.588;7.002;2023-05-02T04:04:49;101275.78;;;13.31;62.30
78337;BME280;67610;51.588;7.002;2023-05-02T04:07:15;101279.41;;;13.30;62.50
78337;BME280;67610;51.588;7.002;2023-05-02T04:09:43;101283.25;;;13.36;62.87
78337;BME280;67610;51.588;7.002;2023-05-02T04:12:09;101287.22;;;13.40;62.59
78337;BME280;67610;51.588;7.002;2023-05-02T04:14:34;101286.41;;;13.39;62.90
78337;BME280;67610;51.588;7.002;2023-05-02T04:17:00;101286.56;;;13.38;63.12
78337;BME280;67610;51.588;7.002;2023-05-02T04:19:25;101298.56;;;13.32;63.71
78337;BME280;67610;51.588;7.002;2023-05-02T04:21:51;101293.38;;;13.22;64.21
78337;BME280;67610;51.588;7.002;2023-05-02T04:24:16;101300.63;;;13.20;64.43
78337;BME280;67610;51.588;7.002;2023-05-02T04:26:42;101290.88;;;13.21;64.55
78337;BME280;67610;51.588;7.002;2023-05-02T04:29:07;101298.69;;;13.22;64.63
78337;BME280;67610;51.588;7.002;2023-05-02T04:31:33;101304.47;;;13.26;64.88
78337;BME280;67610;51.588;7.002;2023-05-02T04:33:59;101306.94;;;13.27;64.75
78337;BME280;67610;51.588;7.002;2023-05-02T04:36:24;101312.22;;;13.27;64.59
78337;BME280;67610;51.588;7.002;2023-05-02T04:38:52;101316.53;;;13.28;64.77
78337;BME280;67610;51.588;7.002;2023-05-02T04:41:17;101321.81;;;13.28;64.90
78337;BME280;67610;51.588;7.002;2023-05-02T04:43:43;101325.44;;;13.27;65.51
78337;BME280;67610;51.588;7.002;2023-05-02T04:46:09;101328.41;;;13.24;65.93
78337;BME280;67610;51.588;7.002;2023-05-02T04:48:37;101331.78;;;13.17;66.79
78337;BME280;67610;51.588;7.002;2023-05-02T04:52:03;101346.59;;;13.10;67.55
78337;BME280;67610;51.588;7.002;2023-05-02T04:54:39;101349.56;;;12.97;66.77
78337;BME280;67610;51.588;7.002;2023-05-02T04:57:05;101361.31;;;12.85;67.17
78337;BME280;67610;51.588;7.002;2023-05-02T04:59:37;101360.66;;;12.83;66.68
78337;BME280;67610;51.588;7.002;2023-05-02T05:05:22;101377.06;;;12.77;67.42
78337;BME280;67610;51.588;7.002;2023-05-02T05:08:15;101382.38;;;12.68;67.06
78337;BME280;67610;51.588;7.002;2023-05-02T05:10:44;101382.81;;;12.63;66.84
78337;BME280;67610;51.588;7.002;2023-05-02T05:13:35;101383.66;;;12.63;67.25
78337;BME280;67610;51.588;7.002;2023-05-02T05:16:21;101390.75;;;12.63;67.42
78337;BME280;67610;51.588;7.002;2023-05-02T05:18:49;101403.94;;;12.63;66.77
78337;BME280;67610;51.588;7.002;2023-05-02T05:24:18;101398.78;;;12.71;66.60
78337;BME280;67610;51.588;7.002;2023-05-02T05:26:44;101396.81;;;12.73;66.41
78337;BME280;67610;51.588;7.002;2023-05-02T05:29:09;101409.84;;;12.75;66.40
78337;BME280;67610;51.588;7.002;2023-05-02T05:31:35;101409.06;;;12.74;66.30
78337;BME280;67610;51.588;7.002;2023-05-02T05:34:01;101411.28;;;12.69;66.15
78337;BME280;67610;51.588;7.002;2023-05-02T05:36:27;101417.25;;;12.71;66.46
78337;BME280;67610;51.588;7.002;2023-05-02T05:38:52;101418.22;;;12.70;66.56
78337;BME280;67610;51.588;7.002;2023-05-02T05:41:18;101421.16;;;12.67;66.18
78337;BME280;67610;51.588;7.002;2023-05-02T05:43:43;101421.16;;;12.67;66.30
78337;BME280;67610;51.588;7.002;2023-05-02T05:46:08;101427.94;;;12.70;66.31
78337;BME280;67610;51.588;7.002;2023-05-02T05:48:34;101433.09;;;12.71;66.25
78337;BME280;67610;51.588;7.002;2023-05-02T05:51:03;101439.72;;;12.75;65.94
78337;BME280;67610;51.588;7.002;2023-05-02T05:53:29;101435.97;;;12.78;65.85
78337;BME280;67610;51.588;7.002;2023-05-02T05:55:55;101444.00;;;12.86;65.57
78337;BME280;67610;51.588;7.002;2023-05-02T05:58:20;101443.66;;;12.98;65.40
78337;BME280;67610;51.588;7.002;2023-05-02T06:00:45;101443.78;;;13.06;65.33
78337;BME280;67610;51.588;7.002;2023-05-02T06:03:11;101454.16;;;13.17;64.79
78337;BME280;67610;51.588;7.002;2023-05-02T06:05:36;101450.59;;;13.26;64.54
78337;BME280;67610;51.588;7.002;2023-05-02T06:08:02;101455.44;;;13.31;64.10
78337;BME280;67610;51.588;7.002;2023-05-02T06:10:27;101449.72;;;13.36;64.22
78337;BME280;67610;51.588;7.002;2023-05-02T06:12:53;101456.34;;;13.40;63.22
78337;BME280;67610;51.588;7.002;2023-05-02T06:15:18;101459.84;;;13.40;63.49
78337;BME280;67610;51.588;7.002;2023-05-02T06:17:43;101459.78;;;13.50;63.54
78337;BME280;67610;51.588;7.002;2023-05-02T06:20:09;101462.47;;;13.58;62.78
78337;BME280;67610;51.588;7.002;2023-05-02T06:22:35;101469.34;;;13.51;62.33
78337;BME280;67610;51.588;7.002;2023-05-02T06:25:00;101472.38;;;13.56;61.61
78337;BME280;67610;51.588;7.002;2023-05-02T06:27:26;101476.00;;;13.55;61.69
78337;BME280;67610;51.588;7.002;2023-05-02T06:29:52;101481.31;;;13.55;62.12
78337;BME280;67610;51.588;7.002;2023-05-02T06:32:18;101482.50;;;13.60;61.92
78337;BME280;67610;51.588;7.002;2023-05-02T06:34:43;101484.63;;;13.57;60.86
78337;BME280;67610;51.588;7.002;2023-05-02T06:37:09;101491.88;;;13.55;61.12
78337;BME280;67610;51.588;7.002;2023-05-02T06:39:35;101491.19;;;13.53;61.27
78337;BME280;67610;51.588;7.002;2023-05-02T06:42:00;101501.44;;;13.56;61.27
78337;BME280;67610;51.588;7.002;2023-05-02T06:44:29;101503.41;;;13.54;61.43
78337;BME280;67610;51.588;7.002;2023-05-02T06:46:54;101514.81;;;13.54;61.49
78337;BME280;67610;51.588;7.002;2023-05-02T06:49:21;101513.69;;;13.57;61.25
78337;BME280;67610;51.588;7.002;2023-05-02T06:51:46;101522.59;;;13.56;60.82
78337;BME280;67610;51.588;7.002;2023-05-02T06:54:11;101523.78;;;13.44;60.46
78337;BME280;67610;51.588;7.002;2023-05-02T06:56:37;101529.94;;;13.35;60.83
78337;BME280;67610;51.588;7.002;2023-05-02T06:59:02;101535.53;;;13.32;60.94
78337;BME280;67610;51.588;7.002;2023-05-02T07:01:28;101541.00;;;13.20;61.10
78337;BME280;67610;51.588;7.002;2023-05-02T07:03:53;101550.13;;;13.08;60.91
78337;BME280;67610;51.588;7.002;2023-05-02T07:06:19;101546.47;;;13.00;61.51
78337;BME280;67610;51.588;7.002;2023-05-02T07:08:44;101562.06;;;12.93;61.45
78337;BME280;67610;51.588;7.002;2023-05-02T07:11:10;101565.56;;;12.84;61.60
78337;BME280;67610;51.588;7.002;2023-05-02T07:13:35;101576.03;;;12.76;61.60
78337;BME280;67610;51.588;7.002;2023-05-02T07:16:00;101576.06;;;12.67;61.93
78337;BME280;67610;51.588;7.002;2023-05-02T07:18:26;101570.09;;;12.65;61.56
78337;BME280;67610;51.588;7.002;2023-05-02T07:20:51;101577.19;;;12.54;61.29
78337;BME280;67610;51.588;7.002;2023-05-02T07:23:17;101592.59;;;12.49;61.88
78337;BME280;67610;51.588;7.002;2023-05-02T07:25:42;101586.78;;;12.46;61.41
78337;BME280;67610;51.588;7.002;2023-05-02T07:28:08;101584.41;;;12.43;61.48
78337;BME280;67610;51.588;7.002;2023-05-02T07:30:33;101597.75;;;12.41;61.76
78337;BME280;67610;51.588;7.002;2023-05-02T07:32:58;101594.00;;;12.44;61.49
78337;BME280;67610;51.588;7.002;2023-05-02T07:35:26;101602.03;;;12.52;61.30
78337;BME280;67610;51.588;7.002;2023-05-02T07:37:52;101605.38;;;12.54;60.92
78337;BME280;67610;51.588;7.002;2023-05-02T07:40:17;101607.59;;;12.49;60.66
78337;BME280;67610;51.588;7.002;2023-05-02T07:42:43;101607.47;;;12.50;60.98
78337;BME280;67610;51.588;7.002;2023-05-02T07:45:11;101608.84;;;12.45;60.97
78337;BME280;67610;51.588;7.002;2023-05-02T07:47:37;101610.53;;;12.36;60.77
78337;BME280;67610;51.588;7.002;2023-05-02T07:50:02;101622.75;;;12.28;61.44
78337;BME280;67610;51.588;7.002;2023-05-02T07:52:28;101622.47;;;12.31;61.85
78337;BME280;67610;51.588;7.002;2023-05-02T07:54:54;101634.00;;;12.39;61.62
78337;BME280;67610;51.588;7.002;2023-05-02T07:59:48;101645.78;;;12.35;62.50
78337;BME280;67610;51.588;7.002;2023-05-02T08:02:14;101649.13;;;12.28;62.10
78337;BME280;67610;51.588;7.002;2023-05-02T08:04:44;101657.31;;;12.25;62.24
78337;BME280;67610;51.588;7.002;2023-05-02T08:07:10;101656.31;;;12.26;61.76
78337;BME280;67610;51.588;7.002;2023-05-02T08:09:35;101654.25;;;12.20;61.37
78337;BME280;67610;51.588;7.002;2023-05-02T08:12:00;101665.75;;;12.00;62.06
78337;BME280;67610;51.588;7.002;2023-05-02T08:14:29;101669.88;;;11.93;62.27
78337;BME280;67610;51.588;7.002;2023-05-02T08:16:56;101671.91;;;11.79;62.77
78337;BME280;67610;51.588;7.002;2023-05-02T08:19:21;101677.06;;;11.81;62.68
78337;BME280;67610;51.588;7.002;2023-05-02T08:21:46;101678.84;;;11.80;62.60
78337;BME280;67610;51.588;7.002;2023-05-02T08:24:12;101685.31;;;11.67;62.37
78337;BME280;67610;51.588;7.002;2023-05-02T08:26:37;101690.38;;;11.59;62.43
78337;BME280;67610;51.588;7.002;2023-05-02T08:29:03;101683.47;;;11.58;62.37
78337;BME280;67610;51.588;7.002;2023-05-02T08:31:30;101694.84;;;11.58;62.71
78337;BME280;67610;51.588;7.002;2023-05-02T08:33:56;101692.50;;;11.65;62.61
78337;BME280;67610;51.588;7.002;2023-05-02T08:36:22;101694.22;;;11.75;62.64
78337;BME280;67610;51.588;7.002;2023-05-02T08:38:47;101711.72;;;11.76;62.89
78337;BME280;67610;51.588;7.002;2023-05-02T08:41:15;101712.97;;;11.82;62.41
78337;BME280;67610;51.588;7.002;2023-05-02T08:43:47;101718.00;;;11.85;62.11
78337;BME280;67610;51.588;7.002;2023-05-02T08:46:14;101722.31;;;11.86;62.45
78337;BME280;67610;51.588;7.002;2023-05-02T08:48:41;101720.81;;;11.93;62.20
78337;BME280;67610;51.588;7.002;2023-05-02T08:51:14;101723.16;;;11.96;62.21
78337;BME280;67610;51.588;7.002;2023-05-02T08:53:40;101723.59;;;12.01;61.65
78337;BME280;67610;51.588;7.002;2023-05-02T08:56:07;101736.22;;;12.07;61.73
78337;BME280;67610;51.588;7.002;2023-05-02T08:58:33;101741.34;;;11.99;60.48
78337;BME280;67610;51.588;7.002;2023-05-02T09:01:00;101740.63;;;11.87;60.99
78337;BME280;67610;51.588;7.002;2023-05-02T09:03:30;101741.47;;;11.88;61.09
78337;BME280;67610;51.588;7.002;2023-05-02T09:06:08;101738.97;;;11.96;61.20
78337;BME280;67610;51.588;7.002;2023-05-02T09:08:35;101738.19;;;12.05;59.64
78337;BME280;67610;51.588;7.002;2023-05-02T09:11:02;101736.56;;;12.14;59.44
78337;BME280;67610;51.588;7.002;2023-05-02T09:13:32;101747.41;;;12.20;59.48
78337;BME280;67610;51.588;7.002;2023-05-02T09:16:01;101752.16;;;12.36;59.16
78337;BME280;67610;51.588;7.002;2023-05-02T09:18:38;101756.06;;;12.41;57.83
78337;BME280;67610;51.588;7.002;2023-05-02T09:21:14;101757.03;;;12.50;57.85
78337;BME280;67610;51.588;7.002;2023-05-02T09:23:49;101758.88;;;12.69;58.28
78337;BME280;67610;51.588;7.002;2023-05-02T09:28:58;101759.31;;;13.12;57.09
78337;BME280;67610;51.588;7.002;2023-05-02T09:31:26;101773.91;;;13.25;56.00
78337;BME280;67610;51.588;7.002;2023-05-02T09:33:52;101773.63;;;13.38;55.26
78337;BME280;67610;51.588;7.002;2023-05-02T09:36:20;101771.91;;;13.56;54.76
78337;BME280;67610;51.588;7.002;2023-05-02T09:38:47;101777.56;;;13.71;53.06
78337;BME280;67610;51.588;7.002;2023-05-02T09:41:14;101774.75;;;13.82;53.12
78337;BME280;67610;51.588;7.002;2023-05-02T09:43:40;101774.38;;;14.04;52.64
78337;BME280;67610;51.588;7.002;2023-05-02T09:46:10;101775.53;;;14.29;51.75
78337;BME280;67610;51.588;7.002;2023-05-02T09:49:02;101786.91;;;14.39;49.18
78337;BME280;67610;51.588;7.002;2023-05-02T09:51:27;101783.97;;;14.59;51.09
78337;BME280;67610;51.588;7.002;2023-05-02T09:53:53;101785.97;;;14.93;50.26
78337;BME280;67610;51.588;7.002;2023-05-02T09:56:18;101787.59;;;15.29;49.28
78337;BME280;67610;51.588;7.002;2023-05-02T09:58:45;101791.00;;;15.57;48.12
78337;BME280;67610;51.588;7.002;2023-05-02T10:01:14;101792.22;;;15.70;46.89
78337;BME280;67610;51.588;7.002;2023-05-02T10:03:41;101785.69;;;15.82;47.36
78337;BME280;67610;51.588;7.002;2023-05-02T10:06:11;101793.38;;;15.93;47.03
78337;BME280;67610;51.588;7.002;2023-05-02T10:08:37;101787.88;;;15.87;47.02
78337;BME280;67610;51.588;7.002;2023-05-02T10:11:06;101801.28;;;15.85;45.72
78337;BME280;67610;51.588;7.002;2023-05-02T10:13:33;101798.91;;;15.74;46.84
78337;BME280;67610;51.588;7.002;2023-05-02T10:16:00;101801.19;;;15.69;45.72
78337;BME280;67610;51.588;7.002;2023-05-02T10:18:47;101810.41;;;15.57;44.71
78337;BME280;67610;51.588;7.002;2023-05-02T10:21:16;101814.84;;;15.57;43.30
78337;BME280;67610;51.588;7.002;2023-05-02T10:23:44;101808.44;;;15.42;44.51
78337;BME280;67610;51.588;7.002;2023-05-02T10:26:13;101808.91;;;15.37;44.94
78337;BME280;67610;51.588;7.002;2023-05-02T10:28:40;101808.22;;;15.35;44.02
78337;BME280;67610;51.588;7.002;2023-05-02T10:31:08;101797.25;;;15.30;43.55
78337;BME280;67610;51.588;7.002;2023-05-02T10:33:34;101793.00;;;15.37;44.58
78337;BME280;67610;51.588;7.002;2023-05-02T10:36:00;101801.59;;;15.57;44.35
78337;BME280;67610;51.588;7.002;2023-05-02T10:38:26;101805.66;;;15.69;43.34
78337;BME280;67610;51.588;7.002;2023-05-02T10:40:58;101801.22;;;15.77;42.87
78337;BME280;67610;51.588;7.002;2023-05-02T10:43:29;101801.31;;;15.93;42.35
78337;BME280;67610;51.588;7.002;2023-05-02T10:45:55;101803.44;;;16.16;42.17
78337;BME280;67610;51.588;7.002;2023-05-02T10:48:25;101805.97;;;16.25;40.91
78337;BME280;67610;51.588;7.002;2023-05-02T10:50:52;101808.03;;;16.47;39.21
78337;BME280;67610;51.588;7.002;2023-05-02T10:56:19;101800.00;;;16.65;39.67
78337;BME280;67610;51.588;7.002;2023-05-02T10:58:51;101806.31;;;16.72;39.28
78337;BME280;67610;51.588;7.002;2023-05-02T11:01:37;101799.66;;;16.68;38.47
78337;BME280;67610;51.588;7.002;2023-05-02T11:04:07;101799.34;;;16.71;38.60
78337;BME280;67610;51.588;7.002;2023-05-02T11:11:47;101807.03;;;17.14;36.35
78337;BME280;67610;51.588;7.002;2023-05-02T11:24:52;101821.66;;;17.10;35.38
78337;BME280;67610;51.588;7.002;2023-05-02T11:29:54;101830.28;;;16.96;35.88
78337;BME280;67610;51.588;7.002;2023-05-02T11:32:19;101831.47;;;17.02;36.23
78337;BME280;67610;51.588;7.002;2023-05-02T11:34:47;101828.31;;;17.14;36.41
78337;BME280;67610;51.588;7.002;2023-05-02T11:37:17;101822.00;;;17.23;35.43
78337;BME280;67610;51.588;7.002;2023-05-02T11:39:43;101828.47;;;17.21;35.17
78337;BME280;67610;51.588;7.002;2023-05-02T11:42:29;101827.47;;;17.14;34.09
78337;BME280;67610;51.588;7.002;2023-05-02T11:44:56;101824.66;;;16.99;35.51
78337;BME280;67610;51.588;7.002;2023-05-02T11:47:22;101832.28;;;16.94;35.15
78337;BME280;67610;51.588;7.002;2023-05-02T11:49:47;101830.78;;;16.92;35.73
78337;BME280;67610;51.588;7.002;2023-05-02T11:52:14;101830.94;;;16.90;35.54
78337;BME280;67610;51.588;7.002;2023-05-02T11:54:40;101831.81;;;17.47;35.46
78337;BME280;67610;51.588;7.002;2023-05-02T11:57:05;101837.47;;;17.60;35.06
78337;BME280;67610;51.588;7.002;2023-05-02T11:59:50;101835.66;;;17.61;33.57
78337;BME280;67610;51.588;7.002;2023-05-02T12:02:16;101838.31;;;17.53;34.00
78337;BME280;67610;51.588;7.002;2023-05-02T12:04:42;101836.31;;;17.63;33.94
78337;BME280;67610;51.588;7.002;2023-05-02T12:07:11;101843.25;;;17.88;34.68
78337;BME280;67610;51.588;7.002;2023-05-02T12:09:49;101844.19;;;18.19;34.53
78337;BME280;67610;51.588;7.002;2023-05-02T12:12:19;101855.50;;;18.21;32.59
78337;BME280;67610;51.588;7.002;2023-05-02T12:14:44;101850.84;;;18.15;32.28
78337;BME280;67610;51.588;7.002;2023-05-02T12:17:10;101849.09;;;17.91;32.62
78337;BME280;67610;51.588;7.002;2023-05-02T12:19:36;101855.88;;;18.02;32.92
78337;BME280;67610;51.588;7.002;2023-05-02T12:22:02;101845.88;;;18.12;32.37
78337;BME280;67610;51.588;7.002;2023-05-02T12:24:28;101860.56;;;17.92;32.49
78337;BME280;67610;51.588;7.002;2023-05-02T12:27:13;101852.28;;;17.71;32.79
78337;BME280;67610;51.588;7.002;2023-05-02T12:29:43;101855.56;;;17.89;32.72
78337;BME280;67610;51.588;7.002;2023-05-02T12:32:13;101853.78;;;17.65;31.87
78337;BME280;67610;51.588;7.002;2023-05-02T12:34:39;101861.91;;;17.72;32.81
78337;BME280;67610;51.588;7.002;2023-05-02T12:37:06;101854.28;;;17.61;31.77
78337;BME280;67610;51.588;7.002;2023-05-02T12:39:40;101856.41;;;17.49;32.27
78337;BME280;67610;51.588;7.002;2023-05-02T12:42:13;101856.91;;;17.44;32.32
78337;BME280;67610;51.588;7.002;2023-05-02T12:44:44;101853.63;;;17.59;30.97
78337;BME280;67610;51.588;7.002;2023-05-02T12:47:11;101860.59;;;17.43;31.76
78337;BME280;67610;51.588;7.002;2023-05-02T12:49:57;101863.75;;;17.39;32.31
78337;BME280;67610;51.588;7.002;2023-05-02T12:52:45;101867.91;;;17.66;32.09
78337;BME280;67610;51.588;7.002;2023-05-02T12:55:21;101865.91;;;17.68;31.77
78337;BME280;67610;51.588;7.002;2023-05-02T12:57:52;101869.25;;;17.78;32.32
78337;BME280;67610;51.588;7.002;2023-05-02T13:00:24;101876.22;;;17.87;32.11
78337;BME280;67610;51.588;7.002;2023-05-02T13:02:49;101873.38;;;17.96;31.96
78337;BME280;67610;51.588;7.002;2023-05-02T13:05:15;101875.84;;;17.98;32.18
78337;BME280;67610;51.588;7.002;2023-05-02T13:07:41;101874.00;;;18.06;32.04
78337;BME280;67610;51.588;7.002;2023-05-02T13:10:07;101881.84;;;18.00;30.96
78337;BME280;67610;51.588;7.002;2023-05-02T13:12:35;101873.38;;;17.96;31.53
78337;BME280;67610;51.588;7.002;2023-05-02T13:15:07;101873.84;;;18.08;31.34
78337;BME280;67610;51.588;7.002;2023-05-02T13:17:33;101876.31;;;18.09;30.26
78337;BME280;67610;51.588;7.002;2023-05-02T13:19:59;101870.63;;;18.21;30.73
78337;BME280;67610;51.588;7.002;2023-05-02T13:22:24;101866.78;;;18.31;30.46
78337;BME280;67610;51.588;7.002;2023-05-02T13:24:51;101865.97;;;18.23;31.43
78337;BME280;67610;51.588;7.002;2023-05-02T13:27:17;101866.13;;;18.29;31.39
78337;BME280;67610;51.588;7.002;2023-05-02T13:29:43;101862.97;;;18.26;30.94
78337;BME280;67610;51.588;7.002;2023-05-02T13:32:08;101873.00;;;17.99;30.94
78337;BME280;67610;51.588;7.002;2023-05-02T13:34:34;101872.22;;;17.83;31.57
78337;BME280;67610;51.588;7.002;2023-05-02T13:36:59;101870.88;;;17.79;31.59
78337;BME280;67610;51.588;7.002;2023-05-02T13:39:25;101872.06;;;17.84;31.33
78337;BME280;67610;51.588;7.002;2023-05-02T13:41:50;101872.06;;;17.84;31.28
78337;BME280;67610;51.588;7.002;2023-05-02T13:44:16;101868.22;;;17.87;31.50
78337;BME280;67610;51.588;7.002;2023-05-02T13:46:41;101870.56;;;17.82;31.19